createdAt,value
2022-08-05T00:01:27.691Z,23.41
2022-08-05T00:04:19.690Z,23.39
2022-08-05T00:07:27.227Z,23.39
2022-08-05T00:10:17.800Z,23.37
2022-08-05T00:13:06.759Z,23.35
2022-08-05T00:16:11.060Z,23.33
2022-08-05T00:19:03.028Z,23.31
2022-08-05T00:21:54.074Z,23.27
2022-08-05T00:24:44.057Z,23.27
2022-08-05T00:27:36.152Z,23.24
2022-08-05T00:30:29.072Z,23.22
2022-08-05T00:34:56.798Z,23.19
2022-08-05T00:37:10.307Z,23.16
2022-08-05T00:39:44.347Z,23.12
2022-08-05T00:42:49.062Z,23.08
2022-08-05T00:45:43.662Z,23.05
2022-08-05T00:48:34.222Z,22.99
2022-08-05T00:51:51.676Z,22.92
2022-08-05T00:54:42.042Z,22.85
2022-08-05T00:57:55.372Z,22.78
2022-08-05T01:00:42.540Z,22.73
2022-08-05T01:03:33.409Z,22.67
2022-08-05T01:06:32.693Z,22.61
2022-08-05T01:09:22.284Z,22.56
2022-08-05T01:12:19.190Z,22.52
2022-08-05T01:15:35.296Z,22.47
2022-08-05T01:18:27.486Z,22.42
2022-08-05T01:21:38.144Z,22.37
2022-08-05T01:24:48.139Z,22.33
2022-08-05T01:27:55.819Z,22.28
2022-08-05T01:30:53.947Z,22.24
2022-08-05T01:33:53.671Z,22.19
2022-08-05T01:36:47.654Z,22.16
2022-08-05T01:39:46.224Z,22.10
2022-08-05T01:42:39.412Z,22.03
2022-08-05T01:45:35.045Z,21.98
2022-08-05T01:48:35.148Z,21.92
2022-08-05T01:51:27.095Z,21.88
2022-08-05T01:54:25.575Z,21.85
2022-08-05T01:58:30.023Z,21.82
2022-08-05T02:00:30.375Z,21.77
2022-08-05T02:03:28.900Z,21.73
2022-08-05T02:06:37.777Z,21.68
2022-08-05T02:09:28.244Z,21.65
2022-08-05T02:12:25.829Z,21.61
2022-08-05T02:15:22.904Z,21.54
2022-08-05T02:18:31.819Z,21.50
2022-08-05T02:21:26.690Z,21.46
2022-08-05T02:24:23.388Z,21.42
2022-08-05T02:27:13.324Z,21.36
2022-08-05T02:30:03.340Z,21.28
2022-08-05T02:32:55.890Z,21.25
2022-08-05T02:35:57.515Z,21.20
2022-08-05T02:38:53.250Z,21.16
2022-08-05T02:42:00.680Z,21.12
2022-08-05T02:44:51.558Z,21.07
2022-08-05T02:48:07.684Z,21.02
2022-08-05T02:50:52.592Z,20.96
2022-08-05T02:53:43.078Z,20.92
2022-08-05T02:56:33.648Z,20.88
2022-08-05T02:59:26.941Z,20.85
2022-08-05T03:02:20.074Z,20.81
2022-08-05T03:05:11.996Z,20.78
2022-08-05T03:08:08.519Z,20.73
2022-08-05T03:11:53.611Z,20.69
2022-08-05T03:14:08.146Z,20.65
2022-08-05T03:16:57.497Z,20.61
2022-08-05T03:19:48.468Z,20.58
2022-08-05T03:22:38.694Z,20.55
2022-08-05T03:26:04.461Z,20.52
2022-08-05T03:28:47.952Z,20.48
2022-08-05T03:31:57.136Z,20.45
2022-08-05T03:34:50.518Z,20.41
2022-08-05T03:37:45.931Z,20.38
2022-08-05T03:40:39.840Z,20.36
2022-08-05T03:44:09.406Z,20.34
2022-08-05T03:46:38.440Z,20.29
2022-08-05T03:49:31.201Z,20.29
2022-08-05T03:55:50.310Z,20.26
2022-08-05T03:56:09.950Z,20.26
2022-08-05T03:59:04.702Z,20.23
2022-08-05T04:01:59.248Z,20.23
2022-08-05T04:04:49.001Z,20.23
2022-08-05T04:07:57.165Z,20.26
2022-08-05T04:10:48.008Z,20.26
2022-08-05T04:13:50.672Z,20.26
2022-08-05T04:16:41.092Z,20.28
2022-08-05T04:19:31.440Z,20.29
2022-08-05T04:22:21.265Z,20.30
2022-08-05T04:25:12.691Z,20.31
2022-08-05T04:28:06.017Z,20.36
2022-08-05T04:31:01.446Z,20.40
2022-08-05T04:34:19.235Z,20.45
2022-08-05T04:37:00.082Z,20.54
2022-08-05T04:39:52.923Z,20.61
2022-08-05T04:42:42.077Z,20.74
2022-08-05T04:45:47.807Z,20.84
2022-08-05T04:48:39.451Z,20.92
2022-08-05T04:51:30.636Z,21.01
2022-08-05T04:54:20.240Z,21.10
2022-08-05T04:57:11.450Z,21.23
2022-08-05T05:00:01.905Z,21.36
2022-08-05T05:02:50.856Z,21.48
2022-08-05T05:06:39.234Z,21.62
2022-08-05T05:08:49.982Z,21.79
2022-08-05T05:11:52.846Z,21.92
2022-08-05T05:14:50.726Z,22.07
2022-08-05T05:17:56.779Z,22.20
2022-08-05T05:20:47.952Z,22.35
2022-08-05T05:24:02.139Z,22.47
2022-08-05T05:26:51.975Z,22.63
2022-08-05T05:30:04.038Z,22.76
2022-08-05T05:32:52.978Z,22.91
2022-08-05T05:35:42.735Z,23.04
2022-08-05T05:38:32.198Z,23.16
2022-08-05T05:41:21.158Z,23.31
2022-08-05T05:44:36.848Z,23.46
2022-08-05T05:47:22.072Z,23.63
2022-08-05T05:50:16.445Z,23.77
2022-08-05T05:53:21.960Z,23.94
2022-08-05T05:56:14.164Z,24.09
2022-08-05T05:59:15.537Z,24.25
2022-08-05T06:02:04.702Z,24.40
2022-08-05T06:04:58.007Z,24.56
2022-08-05T06:07:57.854Z,24.73
2022-08-05T06:10:52.881Z,24.89
2022-08-05T06:13:50.443Z,25.07
2022-08-05T06:16:45.614Z,25.25
2022-08-05T06:19:35.941Z,25.42
2022-08-05T06:22:28.451Z,25.60
2022-08-05T06:25:59.857Z,25.74
2022-08-05T06:28:28.420Z,25.88
2022-08-05T06:31:21.760Z,26.02
2022-08-05T06:34:11.466Z,26.15
2022-08-05T06:37:04.725Z,26.29
2022-08-05T06:39:56.551Z,26.40
2022-08-05T06:42:47.969Z,26.52
2022-08-05T06:46:03.134Z,26.62
2022-08-05T06:48:55.427Z,26.74
2022-08-05T06:51:48.438Z,26.85
2022-08-05T06:54:37.398Z,26.96
2022-08-05T06:58:03.493Z,27.07
2022-08-05T07:00:34.774Z,27.19
2022-08-05T07:03:28.024Z,27.31
2022-08-05T07:06:23.096Z,27.38
2022-08-05T07:09:12.098Z,27.49
2022-08-05T07:12:03.106Z,27.60
2022-08-05T07:15:10.091Z,27.70
2022-08-05T07:18:09.864Z,27.80
2022-08-05T07:21:04.675Z,27.90
2022-08-05T07:23:56.994Z,28.00
2022-08-05T07:26:51.627Z,28.11
2022-08-05T07:30:25.574Z,28.19
2022-08-05T07:32:50.877Z,28.28
2022-08-05T07:36:02.438Z,28.37
2022-08-05T07:38:54.764Z,28.44
2022-08-05T07:42:14.353Z,28.51
2022-08-05T07:44:56.154Z,28.62
2022-08-05T07:47:45.523Z,28.71
2022-08-05T07:50:35.101Z,28.81
2022-08-05T07:53:26.835Z,28.95
2022-08-05T07:57:00.183Z,29.09
2022-08-05T07:59:40.296Z,29.22
2022-08-05T08:03:15.407Z,29.38
2022-08-05T08:05:47.275Z,29.53
2022-08-05T08:08:41.384Z,29.67
2022-08-05T08:11:49.491Z,29.77
2022-08-05T08:14:41.180Z,29.91
2022-08-05T08:17:35.431Z,30.08
2022-08-05T08:20:45.074Z,30.21
2022-08-05T08:24:02.637Z,30.36
2022-08-05T08:26:45.163Z,30.54
2022-08-05T08:30:04.321Z,30.63
2022-08-05T08:32:44.178Z,30.74
2022-08-05T08:35:35.027Z,30.87
2022-08-05T08:38:35.238Z,31.06
2022-08-05T08:41:52.049Z,31.20
2022-08-05T08:45:23.212Z,31.38
2022-08-05T08:48:10.743Z,31.59
2022-08-05T08:51:22.177Z,31.79
2022-08-05T08:54:13.760Z,31.93
2022-08-05T08:57:03.033Z,32.09
2022-08-05T08:59:56.020Z,32.17
2022-08-05T09:02:46.630Z,32.24
2022-08-05T09:05:38.846Z,32.41
2022-08-05T09:08:47.784Z,32.59
2022-08-05T09:11:51.052Z,32.76
2022-08-05T09:14:57.030Z,32.88
2022-08-05T09:17:50.037Z,32.88
2022-08-05T09:20:44.082Z,32.93
2022-08-05T09:23:37.427Z,33.05
2022-08-05T09:26:32.859Z,33.19
2022-08-05T09:29:37.177Z,33.27
2022-08-05T09:32:42.804Z,33.38
2022-08-05T09:35:36.612Z,33.59
2022-08-05T09:38:29.519Z,33.78
2022-08-05T09:41:18.416Z,33.85
2022-08-05T09:44:11.188Z,33.90
2022-08-05T09:47:10.436Z,33.89
2022-08-05T09:50:04.137Z,33.80
2022-08-05T09:52:58.810Z,33.82
2022-08-05T09:55:56.199Z,33.88
2022-08-05T09:58:58.809Z,33.94
2022-08-05T10:01:48.240Z,33.92
2022-08-05T10:04:48.057Z,34.03
2022-08-05T10:08:35.353Z,34.04
2022-08-05T10:10:59.153Z,33.99
2022-08-05T10:13:54.532Z,34.03
2022-08-05T10:16:52.395Z,34.18
2022-08-05T10:20:03.949Z,34.39
2022-08-05T10:22:54.478Z,34.57
2022-08-05T10:25:47.374Z,34.57
2022-08-05T10:28:36.856Z,34.55
2022-08-05T10:32:52.721Z,34.63
2022-08-05T10:34:36.784Z,34.79
2022-08-05T10:37:37.477Z,34.82
2022-08-05T10:40:38.962Z,34.75
2022-08-05T10:43:41.280Z,34.76
2022-08-05T10:46:46.077Z,34.69
2022-08-05T10:50:32.225Z,34.68
2022-08-05T10:53:37.971Z,34.68
2022-08-05T10:56:30.528Z,34.74
2022-08-05T11:00:03.354Z,34.78
2022-08-05T11:02:37.973Z,34.84
2022-08-05T11:05:31.584Z,34.93
2022-08-05T11:08:34.321Z,35.01
2022-08-05T11:11:52.050Z,35.17
2022-08-05T11:15:01.311Z,35.35
2022-08-05T11:18:07.475Z,35.44
2022-08-05T11:21:00.033Z,35.53
2022-08-05T11:24:02.983Z,35.53
2022-08-05T11:27:26.223Z,35.58
2022-08-05T11:30:15.032Z,35.55
2022-08-05T11:33:44.013Z,35.61
2022-08-05T11:36:46.878Z,35.65
2022-08-05T11:39:55.304Z,35.76
2022-08-05T11:42:47.502Z,35.90
2022-08-05T11:46:16.195Z,36.11
2022-08-05T11:48:59.593Z,36.38
2022-08-05T11:51:51.087Z,36.55
2022-08-05T11:54:43.423Z,36.62
2022-08-05T11:57:39.261Z,36.61
2022-08-05T12:00:47.040Z,36.65
2022-08-05T12:03:55.500Z,36.61
2022-08-05T12:06:48.921Z,36.73
2022-08-05T12:09:53.325Z,36.64
2022-08-05T12:12:58.472Z,36.62
2022-08-05T12:15:49.961Z,36.63
2022-08-05T12:18:39.511Z,36.79
2022-08-05T12:21:38.978Z,36.92
2022-08-05T12:24:28.085Z,37.04
2022-08-05T12:27:25.386Z,37.04
2022-08-05T12:30:15.707Z,37.13
2022-08-05T12:33:07.220Z,37.27
2022-08-05T12:36:15.259Z,37.43
2022-08-05T12:39:06.901Z,37.51
2022-08-05T12:41:59.661Z,37.61
2022-08-05T12:44:49.721Z,37.72
2022-08-05T12:47:43.572Z,37.73
2022-08-05T12:52:10.129Z,37.76
2022-08-05T12:54:29.657Z,37.91
2022-08-05T12:57:23.428Z,37.99
2022-08-05T13:02:00.764Z,38.07
2022-08-05T13:03:32.893Z,38.04
2022-08-05T13:06:22.625Z,38.06
2022-08-05T13:09:12.787Z,38.06
2022-08-05T13:12:08.736Z,38.12
2022-08-05T13:15:13.709Z,38.24
2022-08-05T13:18:06.471Z,38.34
2022-08-05T13:20:55.894Z,38.39
2022-08-05T13:23:50.868Z,38.48
2022-08-05T13:26:41.395Z,38.57
2022-08-05T13:29:39.568Z,38.69
2022-08-05T13:32:50.505Z,38.66
2022-08-05T13:35:47.330Z,38.61
2022-08-05T13:38:43.170Z,38.66
2022-08-05T13:41:37.468Z,38.72
2022-08-05T13:44:26.971Z,38.73
2022-08-05T13:47:28.133Z,38.71
2022-08-05T13:50:25.371Z,38.70
2022-08-05T13:53:15.741Z,38.62
2022-08-05T13:56:18.081Z,38.49
2022-08-05T13:59:20.187Z,38.40
2022-08-05T14:02:20.102Z,38.26
2022-08-05T14:05:11.992Z,38.17
2022-08-05T14:08:19.847Z,38.12
2022-08-05T14:11:20.634Z,38.05
2022-08-05T14:14:11.199Z,38.04
2022-08-05T14:17:01.182Z,38.04
2022-08-05T14:19:55.144Z,37.97
2022-08-05T14:22:50.163Z,37.92
2022-08-05T14:25:43.595Z,37.82
2022-08-05T14:28:34.637Z,37.58
2022-08-05T14:32:02.379Z,37.55
2022-08-05T14:34:35.446Z,37.41
2022-08-05T14:37:45.367Z,37.36
2022-08-05T14:40:34.937Z,37.34
2022-08-05T14:43:39.196Z,37.31
2022-08-05T14:46:35.123Z,37.19
2022-08-05T14:49:24.737Z,37.17
2022-08-05T14:52:51.987Z,37.16
2022-08-05T14:55:42.802Z,37.19
2022-08-05T14:58:33.507Z,37.24
2022-08-05T15:01:49.163Z,37.28
2022-08-05T15:04:31.593Z,37.28
2022-08-05T15:08:11.268Z,37.28
2022-08-05T15:10:31.019Z,37.22
2022-08-05T15:13:21.002Z,37.14
2022-08-05T15:16:30.239Z,37.14
2022-08-05T15:19:23.487Z,37.13
2022-08-05T15:22:13.612Z,37.11
2022-08-05T15:25:11.929Z,37.10
2022-08-05T15:28:04.107Z,37.06
2022-08-05T15:30:53.681Z,37.06
2022-08-05T15:34:05.115Z,37.04
2022-08-05T15:36:52.284Z,37.01
2022-08-05T15:41:04.618Z,36.96
2022-08-05T15:42:55.072Z,36.85
2022-08-05T15:46:00.606Z,36.64
2022-08-05T15:48:53.000Z,36.48
2022-08-05T15:52:09.950Z,36.44
2022-08-05T15:54:57.725Z,36.41
2022-08-05T15:57:48.998Z,36.38
2022-08-05T16:01:04.134Z,36.36
2022-08-05T16:03:50.902Z,36.32
2022-08-05T16:06:40.605Z,36.27
2022-08-05T16:09:29.973Z,36.19
2022-08-05T16:12:21.932Z,36.12
2022-08-05T16:15:18.662Z,36.06
2022-08-05T16:18:09.216Z,36.00
2022-08-05T16:20:59.569Z,35.92
2022-08-05T16:23:55.377Z,35.85
2022-08-05T16:26:54.301Z,35.78
2022-08-05T16:29:47.490Z,35.73
2022-08-05T16:32:40.567Z,35.65
2022-08-05T16:35:34.522Z,35.54
2022-08-05T16:38:31.656Z,35.45
2022-08-05T16:42:12.118Z,35.36
2022-08-05T16:44:31.228Z,35.25
2022-08-05T16:47:28.760Z,35.14
2022-08-05T16:50:26.354Z,35.03
2022-08-05T16:53:22.823Z,34.92
2022-08-05T16:56:21.067Z,34.80
2022-08-05T16:59:15.747Z,34.70
2022-08-05T17:02:06.866Z,34.59
2022-08-05T17:04:58.392Z,34.44
2022-08-05T17:07:54.577Z,34.29
2022-08-05T17:10:44.192Z,34.15
2022-08-05T17:13:37.638Z,34.01
2022-08-05T17:16:33.702Z,33.84
2022-08-05T17:19:25.317Z,33.69
2022-08-05T17:22:24.446Z,33.53
2022-08-05T17:25:22.299Z,33.36
2022-08-05T17:28:24.144Z,33.19
2022-08-05T17:31:24.524Z,33.06
2022-08-05T17:34:29.853Z,32.88
2022-08-05T17:37:39.539Z,32.72
2022-08-05T17:40:31.521Z,32.58
2022-08-05T17:43:46.910Z,32.47
2022-08-05T17:46:31.827Z,32.35
2022-08-05T17:49:22.441Z,32.23
2022-08-05T17:52:12.628Z,32.13
2022-08-05T17:55:02.983Z,32.05
2022-08-05T17:57:52.189Z,31.94
2022-08-05T18:00:45.195Z,31.84
2022-08-05T18:03:59.518Z,31.71
2022-08-05T18:06:46.103Z,31.58
2022-08-05T18:09:59.050Z,31.46
2022-08-05T18:12:49.637Z,31.35
2022-08-05T18:15:38.995Z,31.23
2022-08-05T18:18:30.205Z,31.11
2022-08-05T18:21:22.782Z,31.00
2022-08-05T18:24:15.499Z,30.89
2022-08-05T18:27:06.454Z,30.79
2022-08-05T18:30:03.046Z,30.68
2022-08-05T18:33:00.200Z,30.58
2022-08-05T18:36:03.339Z,30.48
2022-08-05T18:38:54.035Z,30.39
2022-08-05T18:41:56.684Z,30.30
2022-08-05T18:44:56.549Z,30.20
2022-08-05T18:47:50.137Z,30.09
2022-08-05T18:51:49.597Z,29.99
2022-08-05T18:54:09.551Z,29.89
2022-08-05T18:56:57.897Z,29.81
2022-08-05T19:00:01.374Z,29.72
2022-08-05T19:02:53.141Z,29.62
2022-08-05T19:06:12.713Z,29.56
2022-08-05T19:08:52.651Z,29.46
2022-08-05T19:12:00.426Z,29.39
2022-08-05T19:15:00.847Z,29.30
2022-08-05T19:18:09.715Z,29.22
2022-08-05T19:21:01.134Z,29.12
2022-08-05T19:24:07.482Z,29.06
2022-08-05T19:26:58.094Z,28.99
2022-08-05T19:29:49.442Z,28.92
2022-08-05T19:32:38.683Z,28.84
2022-08-05T19:35:27.635Z,28.77
2022-08-05T19:38:36.815Z,28.70
2022-08-05T19:41:58.184Z,28.62
2022-08-05T19:44:38.738Z,28.54
2022-08-05T19:47:37.181Z,28.48
2022-08-05T19:50:27.532Z,28.40
2022-08-05T19:53:16.698Z,28.32
2022-08-05T19:56:32.674Z,28.21
2022-08-05T19:59:56.247Z,28.14
2022-08-05T20:02:33.547Z,28.07
2022-08-05T20:05:26.192Z,28.00
2022-08-05T20:08:32.728Z,27.93
2022-08-05T20:11:23.777Z,27.87
2022-08-05T20:14:18.096Z,27.79
2022-08-05T20:17:16.272Z,27.73
2022-08-05T20:20:09.452Z,27.69
2022-08-05T20:23:03.833Z,27.63
2022-08-05T20:25:54.023Z,27.57
2022-08-05T20:28:43.962Z,27.53
2022-08-05T20:31:43.222Z,27.49
2022-08-05T20:34:43.137Z,27.45
2022-08-05T20:38:05.459Z,27.42
2022-08-05T20:40:43.296Z,27.38
2022-08-05T20:43:59.927Z,27.34
2022-08-05T20:46:43.422Z,27.31
2022-08-05T20:49:39.777Z,27.28
2022-08-05T20:52:28.960Z,27.24
2022-08-05T20:55:56.479Z,27.19
2022-08-05T20:58:27.565Z,27.16
2022-08-05T21:01:17.995Z,27.13
2022-08-05T21:04:15.518Z,27.07
2022-08-05T21:07:05.299Z,27.03
2022-08-05T21:09:57.536Z,27.00
2022-08-05T21:12:58.341Z,26.96
2022-08-05T21:15:56.587Z,26.90
2022-08-05T21:18:45.925Z,26.86
2022-08-05T21:21:39.896Z,26.80
2022-08-05T21:24:39.814Z,26.76
2022-08-05T21:27:38.773Z,26.72
2022-08-05T21:30:28.385Z,26.67
2022-08-05T21:33:22.308Z,26.63
2022-08-05T21:36:13.267Z,26.58
2022-08-05T21:39:09.324Z,26.54
2022-08-05T21:42:01.926Z,26.49
2022-08-05T21:44:51.233Z,26.45
2022-08-05T21:47:56.385Z,26.40
2022-08-05T21:50:54.017Z,26.34
2022-08-05T21:53:43.485Z,26.29
2022-08-05T21:56:51.545Z,26.23
2022-08-05T22:00:02.094Z,26.18
2022-08-05T22:03:01.569Z,26.16
2022-08-05T22:05:50.526Z,26.14
2022-08-05T22:08:42.457Z,26.12
2022-08-05T22:11:34.528Z,26.10
2022-08-05T22:14:34.994Z,26.07
2022-08-05T22:17:27.256Z,26.06
2022-08-05T22:20:17.916Z,26.05
2022-08-05T22:23:25.246Z,26.03
2022-08-05T22:26:52.709Z,25.99
2022-08-05T22:29:42.081Z,25.98
2022-08-05T22:32:33.498Z,25.96
2022-08-05T22:35:22.567Z,25.93
2022-08-05T22:38:12.947Z,25.92
2022-08-05T22:41:09.440Z,25.89
2022-08-05T22:43:59.786Z,25.87
2022-08-05T22:46:48.949Z,25.84
2022-08-05T22:50:20.401Z,25.83
2022-08-05T22:52:47.160Z,25.78
2022-08-05T22:55:37.154Z,25.76
2022-08-05T22:58:46.364Z,25.73
2022-08-05T23:02:05.095Z,25.69
2022-08-05T23:04:52.015Z,25.65
2022-08-05T23:07:45.187Z,25.62
2022-08-05T23:10:38.454Z,25.58
2022-08-05T23:13:27.823Z,25.54
2022-08-05T23:16:38.699Z,25.50
2022-08-05T23:19:38.509Z,25.44
2022-08-05T23:22:35.667Z,25.40
2022-08-05T23:25:52.395Z,25.36
2022-08-05T23:28:35.733Z,25.30
2022-08-05T23:31:24.258Z,25.27
2022-08-05T23:34:13.470Z,25.22
2022-08-05T23:37:13.644Z,25.16
2022-08-05T23:40:09.497Z,25.14
2022-08-05T23:43:01.142Z,25.08
2022-08-05T23:46:01.418Z,25.04
2022-08-05T23:49:00.974Z,25.00
2022-08-05T23:52:08.827Z,24.97
2022-08-05T23:55:00.489Z,24.92
2022-08-05T23:57:51.259Z,24.87
